createdAt,value
2023-05-15T00:01:08.820Z,98348.80
2023-05-15T00:03:45.278Z,98346.40
2023-05-15T00:06:22.059Z,98346.00
2023-05-15T00:08:58.544Z,98338.80
2023-05-15T00:11:34.797Z,98336.60
2023-05-15T00:14:11.380Z,98330.80
2023-05-15T00:16:47.799Z,98333.20
2023-05-15T00:19:24.234Z,98334.60
2023-05-15T00:22:00.449Z,98327.80
2023-05-15T00:24:36.945Z,98327.00
2023-05-15T00:27:13.410Z,98331.40
2023-05-15T00:29:50.072Z,98327.60
2023-05-15T00:32:26.416Z,98319.60
2023-05-15T00:35:03.010Z,98312.40
2023-05-15T00:37:40.407Z,98307.20
2023-05-15T00:40:25.151Z,98301.80
2023-05-15T00:43:04.092Z,98295.80
2023-05-15T00:45:43.423Z,98291.20
2023-05-15T00:48:22.656Z,98288.60
2023-05-15T00:51:00.963Z,98284.80
2023-05-15T00:53:38.924Z,98288.80
2023-05-15T00:56:18.115Z,98284.20
2023-05-15T00:58:57.478Z,98276.60
2023-05-15T01:01:36.230Z,98275.20
2023-05-15T01:04:13.028Z,98261.00
2023-05-15T01:06:49.592Z,98261.20
2023-05-15T01:09:31.352Z,98256.20
2023-05-15T01:12:11.006Z,98254.00
2023-05-15T01:14:47.524Z,98258.20
2023-05-15T01:17:23.850Z,98253.40
2023-05-15T01:20:03.870Z,98257.80
2023-05-15T01:23:15.683Z,98251.60
2023-05-15T01:26:50.505Z,98260.60
2023-05-15T01:29:37.335Z,98259.60
2023-05-15T01:32:22.435Z,98265.00
2023-05-15T01:35:10.265Z,98260.00
2023-05-15T01:37:56.106Z,98252.40
2023-05-15T01:40:33.118Z,98246.40
2023-05-15T01:43:23.153Z,98244.00
2023-05-15T01:46:01.200Z,98245.80
2023-05-15T01:48:38.867Z,98239.00
2023-05-15T01:51:17.599Z,98239.80
2023-05-15T01:53:55.024Z,98237.00
2023-05-15T01:56:33.400Z,98229.60
2023-05-15T01:59:10.633Z,98221.60
2023-05-15T02:01:49.146Z,98224.80
2023-05-15T02:04:27.397Z,98221.40
2023-05-15T02:07:06.949Z,98220.60
2023-05-15T02:09:45.517Z,98218.20
2023-05-15T02:12:22.649Z,98211.40
2023-05-15T02:15:01.047Z,98211.80
2023-05-15T02:17:37.453Z,98206.20
2023-05-15T02:20:16.081Z,98203.00
2023-05-15T02:22:52.561Z,98197.80
2023-05-15T02:25:45.099Z,98197.20
2023-05-15T02:28:37.225Z,98191.40
2023-05-15T02:31:26.607Z,98186.00
2023-05-15T02:34:17.959Z,98180.60
2023-05-15T02:36:59.111Z,98173.80
2023-05-15T02:39:38.262Z,98171.20
2023-05-15T02:42:17.053Z,98160.40
2023-05-15T02:44:56.610Z,98157.80
2023-05-15T02:47:34.714Z,98151.00
2023-05-15T02:50:13.700Z,98146.00
2023-05-15T02:52:50.116Z,98143.40
2023-05-15T02:55:26.547Z,98147.80
2023-05-15T02:58:03.808Z,98150.80
2023-05-15T03:00:40.216Z,98147.80
2023-05-15T03:03:16.667Z,98147.00
2023-05-15T03:05:53.929Z,98142.20
2023-05-15T03:08:30.615Z,98146.60
2023-05-15T03:11:07.104Z,98144.60
2023-05-15T03:13:43.313Z,98141.40
2023-05-15T03:16:19.706Z,98134.60
2023-05-15T03:18:56.305Z,98139.00
2023-05-15T03:21:32.893Z,98135.80
2023-05-15T03:24:10.473Z,98135.20
2023-05-15T03:26:47.010Z,98140.20
2023-05-15T03:29:23.170Z,98137.20
2023-05-15T03:31:59.478Z,98138.20
2023-05-15T03:34:37.109Z,98135.20
2023-05-15T03:37:13.521Z,98136.00
2023-05-15T03:39:49.963Z,98138.60
2023-05-15T03:42:26.840Z,98142.00
2023-05-15T03:45:04.020Z,98133.00
2023-05-15T03:47:40.308Z,98130.00
2023-05-15T03:50:18.482Z,98130.20
2023-05-15T03:52:55.268Z,98130.40
2023-05-15T03:55:31.849Z,98121.60
2023-05-15T03:58:08.232Z,98120.60
2023-05-15T04:00:44.621Z,98115.40
2023-05-15T04:03:21.189Z,98118.20
2023-05-15T04:05:57.436Z,98116.20
2023-05-15T04:08:34.182Z,98107.80
2023-05-15T04:11:11.579Z,98102.20
2023-05-15T04:13:47.837Z,98097.60
2023-05-15T04:16:24.076Z,98093.00
2023-05-15T04:19:00.393Z,98089.40
2023-05-15T04:21:36.636Z,98085.40
2023-05-15T04:24:13.907Z,98092.80
2023-05-15T04:26:50.853Z,98092.00
2023-05-15T04:29:27.632Z,98092.60
2023-05-15T04:32:03.967Z,98083.80
2023-05-15T04:34:41.234Z,98069.00
2023-05-15T04:37:18.094Z,98063.40
2023-05-15T04:39:54.620Z,98060.20
2023-05-15T04:42:31.055Z,98051.20
2023-05-15T04:45:09.559Z,98048.40
2023-05-15T04:47:45.751Z,98051.20
2023-05-15T04:50:22.212Z,98047.60
2023-05-15T04:52:58.741Z,98041.20
2023-05-15T04:55:35.018Z,98044.20
2023-05-15T04:58:11.303Z,98051.60
2023-05-15T05:00:47.645Z,98055.40
2023-05-15T05:03:23.988Z,98060.60
2023-05-15T05:06:00.581Z,98065.40
2023-05-15T05:08:36.948Z,98053.60
2023-05-15T05:11:13.278Z,98055.40
2023-05-15T05:13:49.966Z,98055.20
2023-05-15T05:16:26.729Z,98047.60
2023-05-15T05:19:03.067Z,98053.80
2023-05-15T05:21:39.575Z,98054.20
2023-05-15T05:24:15.818Z,98050.60
2023-05-15T05:26:52.453Z,98047.00
2023-05-15T05:29:28.935Z,98046.60
2023-05-15T05:32:05.861Z,98044.60
2023-05-15T05:34:42.649Z,98045.20
2023-05-15T05:37:18.943Z,98047.80
2023-05-15T05:39:55.845Z,98050.00
2023-05-15T05:42:32.158Z,98063.40
2023-05-15T05:45:11.470Z,98067.20
2023-05-15T05:47:48.100Z,98067.00
2023-05-15T05:50:25.262Z,98059.40
2023-05-15T05:53:01.651Z,98050.80
2023-05-15T05:55:38.054Z,98041.80
2023-05-15T05:58:21.703Z,98047.40
2023-05-15T06:01:02.174Z,98056.40
2023-05-15T06:03:39.733Z,98053.00
2023-05-15T06:06:16.499Z,98043.20
2023-05-15T06:08:55.652Z,98028.60
2023-05-15T06:11:34.039Z,98022.00
2023-05-15T06:14:10.894Z,98022.60
2023-05-15T06:16:47.532Z,98013.00
2023-05-15T06:19:25.092Z,98002.40
2023-05-15T06:22:01.727Z,97991.80
2023-05-15T06:24:38.904Z,97981.60
2023-05-15T06:27:15.479Z,97979.00
2023-05-15T06:29:52.195Z,97971.40
2023-05-15T06:32:29.560Z,97974.40
2023-05-15T06:35:07.517Z,97988.20
2023-05-15T06:37:44.042Z,97982.60
2023-05-15T06:40:22.421Z,97976.60
2023-05-15T06:42:58.864Z,97976.80
2023-05-15T06:45:35.797Z,97978.00
2023-05-15T06:48:12.998Z,97980.40
2023-05-15T06:50:49.933Z,97968.40
2023-05-15T06:53:26.520Z,97969.60
2023-05-15T06:56:02.891Z,97975.20
2023-05-15T06:58:39.777Z,97971.80
2023-05-15T07:01:16.782Z,97967.60
2023-05-15T07:03:53.524Z,97966.00
2023-05-15T07:06:32.060Z,97965.40
2023-05-15T07:09:09.343Z,97967.00
2023-05-15T07:11:45.962Z,97968.60
2023-05-15T07:14:22.859Z,97968.00
2023-05-15T07:16:59.790Z,97968.20
2023-05-15T07:19:36.712Z,97974.00
2023-05-15T07:22:13.841Z,97972.00
2023-05-15T07:24:51.671Z,97978.40
2023-05-15T07:27:28.364Z,97974.00
2023-05-15T07:30:06.720Z,97978.40
2023-05-15T07:32:43.541Z,97978.20
2023-05-15T07:35:20.672Z,97982.60
2023-05-15T07:37:57.589Z,97983.40
2023-05-15T07:40:34.365Z,97985.00
2023-05-15T07:43:11.883Z,97983.20
2023-05-15T07:45:48.668Z,97979.20
2023-05-15T07:48:25.699Z,97988.80
2023-05-15T07:51:02.621Z,97986.40
2023-05-15T07:53:39.756Z,97988.20
2023-05-15T07:56:16.646Z,97993.80
2023-05-15T07:58:53.040Z,97987.40
2023-05-15T08:01:30.752Z,97981.60
2023-05-15T08:04:13.245Z,97983.80
2023-05-15T08:06:49.544Z,97984.20
2023-05-15T08:09:25.831Z,97987.60
2023-05-15T08:12:21.248Z,97990.40
2023-05-15T08:14:59.596Z,97992.40
2023-05-15T08:17:36.218Z,97995.60
2023-05-15T08:20:16.081Z,97995.80
2023-05-15T08:22:52.732Z,97993.80
2023-05-15T08:25:29.033Z,97994.20
2023-05-15T08:28:07.210Z,97998.40
2023-05-15T08:30:43.648Z,97993.00
2023-05-15T08:33:20.052Z,97996.80
2023-05-15T08:35:56.580Z,97995.80
2023-05-15T08:38:33.156Z,98002.80
2023-05-15T08:41:40.573Z,98002.80
2023-05-15T08:44:17.693Z,98003.80
2023-05-15T08:46:55.149Z,98008.60
2023-05-15T08:49:46.060Z,98007.60
2023-05-15T08:52:25.891Z,98006.80
2023-05-15T08:55:04.538Z,98004.60
2023-05-15T08:57:42.018Z,98007.00
2023-05-15T09:00:24.115Z,98011.20
2023-05-15T09:03:05.443Z,98005.60
2023-05-15T09:05:40.737Z,98001.80
2023-05-15T09:08:20.068Z,98010.60
2023-05-15T09:10:59.750Z,98029.20
2023-05-15T09:13:37.272Z,98036.20
2023-05-15T09:16:14.306Z,98048.20
2023-05-15T09:18:53.541Z,98043.60
2023-05-15T09:21:32.430Z,98035.20
2023-05-15T09:24:28.438Z,98024.80
2023-05-15T09:27:11.388Z,98014.80
2023-05-15T09:29:48.030Z,98010.00
2023-05-15T09:32:28.054Z,98007.00
2023-05-15T09:35:04.715Z,98011.60
2023-05-15T09:37:41.067Z,98022.40
2023-05-15T09:40:21.727Z,98026.80
2023-05-15T09:42:59.382Z,98028.40
2023-05-15T09:45:36.280Z,98030.80
2023-05-15T09:48:14.524Z,98037.80
2023-05-15T09:50:51.370Z,98043.40
2023-05-15T09:53:29.649Z,98056.20
2023-05-15T09:56:07.459Z,98058.40
2023-05-15T09:58:57.775Z,98055.60
2023-05-15T10:01:36.885Z,98048.20
2023-05-15T10:04:14.693Z,98042.20
2023-05-15T10:06:53.464Z,98043.60
2023-05-15T10:09:34.324Z,98045.60
2023-05-15T10:12:13.005Z,98046.20
2023-05-15T10:14:51.159Z,98047.00
2023-05-15T10:17:29.077Z,98036.40
2023-05-15T10:20:08.473Z,98032.80
2023-05-15T10:22:50.463Z,98022.20
2023-05-15T10:25:41.531Z,98026.60
2023-05-15T10:28:20.373Z,98037.60
2023-05-15T10:31:01.162Z,98039.20
2023-05-15T10:33:40.211Z,98034.60
2023-05-15T10:36:19.529Z,98033.20
2023-05-15T10:38:56.373Z,98035.40
2023-05-15T10:41:34.612Z,98038.20
2023-05-15T10:44:11.186Z,98038.40
2023-05-15T10:46:48.176Z,98048.20
2023-05-15T10:49:24.832Z,98064.00
2023-05-15T10:52:04.357Z,98062.00
2023-05-15T10:54:40.999Z,98063.60
2023-05-15T10:57:18.788Z,98059.60
2023-05-15T10:59:55.281Z,98054.20
2023-05-15T11:02:39.054Z,98059.60
2023-05-15T11:05:16.713Z,98058.20
2023-05-15T11:08:27.544Z,98048.80
2023-05-15T11:11:04.235Z,98052.20
2023-05-15T11:14:19.171Z,98052.60
2023-05-15T11:17:09.707Z,98046.80
2023-05-15T11:20:02.479Z,98045.80
2023-05-15T11:22:40.494Z,98050.40
2023-05-15T11:25:17.558Z,98045.00
2023-05-15T11:27:59.550Z,98044.80
2023-05-15T11:30:44.260Z,98040.60
2023-05-15T11:33:22.607Z,98048.60
2023-05-15T11:36:08.448Z,98043.80
2023-05-15T11:38:46.151Z,98045.00
2023-05-15T11:41:33.970Z,98046.00
2023-05-15T11:44:10.732Z,98039.60
2023-05-15T11:46:47.388Z,98040.60
2023-05-15T11:49:26.442Z,98036.20
2023-05-15T11:52:02.893Z,98033.80
2023-05-15T11:54:39.551Z,98031.60
2023-05-15T11:57:16.867Z,98035.60
2023-05-15T11:59:57.603Z,98034.80
2023-05-15T12:02:35.045Z,98030.20
2023-05-15T12:05:15.325Z,98031.60
2023-05-15T12:07:52.547Z,98023.40
2023-05-15T12:10:29.203Z,98031.20
2023-05-15T12:13:06.280Z,98030.60
2023-05-15T12:15:46.946Z,98020.60
2023-05-15T12:18:23.854Z,98018.60
2023-05-15T12:21:00.665Z,98016.80
2023-05-15T12:23:37.201Z,98011.40
2023-05-15T12:26:14.190Z,98021.00
2023-05-15T12:28:51.012Z,98019.60
2023-05-15T12:31:27.561Z,98015.00
2023-05-15T12:34:04.321Z,98008.00
2023-05-15T12:36:44.005Z,98004.00
2023-05-15T12:39:20.519Z,98007.20
2023-05-15T12:41:58.838Z,98003.40
2023-05-15T12:44:36.523Z,98010.80
2023-05-15T12:47:14.568Z,98011.80
2023-05-15T12:49:51.044Z,98009.80
2023-05-15T12:52:32.777Z,98009.80
2023-05-15T12:55:16.220Z,98006.40
2023-05-15T12:57:53.550Z,98001.40
2023-05-15T13:00:32.016Z,97990.40
2023-05-15T13:03:12.189Z,97987.20
2023-05-15T13:05:50.375Z,97990.00
2023-05-15T13:08:27.121Z,97985.80
2023-05-15T13:11:04.573Z,97984.20
2023-05-15T13:13:50.849Z,97989.00
2023-05-15T13:16:30.523Z,97999.60
2023-05-15T13:19:07.491Z,97995.80
2023-05-15T13:21:44.037Z,97988.80
2023-05-15T13:24:20.588Z,97979.80
2023-05-15T13:26:56.849Z,97977.00
2023-05-15T13:29:33.319Z,97984.20
2023-05-15T13:32:11.241Z,97983.00
2023-05-15T13:34:47.578Z,97987.60
2023-05-15T13:37:23.868Z,97985.80
2023-05-15T13:40:00.332Z,97989.20
2023-05-15T13:42:36.993Z,97986.00
2023-05-15T13:45:16.479Z,97981.40
2023-05-15T13:47:53.369Z,97988.20
2023-05-15T13:50:30.009Z,97994.20
2023-05-15T13:53:06.275Z,97991.20
2023-05-15T13:55:42.767Z,97987.20
2023-05-15T13:58:19.370Z,97979.20
2023-05-15T14:00:56.258Z,97974.20
2023-05-15T14:03:33.121Z,97975.80
2023-05-15T14:06:11.418Z,97976.20
2023-05-15T14:08:48.022Z,97985.60
2023-05-15T14:11:24.704Z,97979.00
2023-05-15T14:14:01.582Z,97975.20
2023-05-15T14:16:38.287Z,97986.80
2023-05-15T14:19:14.834Z,97996.00
2023-05-15T14:21:51.871Z,98004.20
2023-05-15T14:24:28.469Z,98005.40
2023-05-15T14:27:05.931Z,98011.00
2023-05-15T14:29:44.894Z,98021.00
2023-05-15T14:32:21.817Z,98036.00
2023-05-15T14:35:00.151Z,98035.00
2023-05-15T14:37:37.442Z,98032.40
2023-05-15T14:40:17.160Z,98034.60
2023-05-15T14:42:54.094Z,98021.00
2023-05-15T14:45:30.922Z,98022.20
2023-05-15T14:48:07.579Z,98017.00
2023-05-15T14:50:44.754Z,98017.00
2023-05-15T14:53:21.284Z,98013.60
2023-05-15T14:55:59.061Z,98007.80
2023-05-15T14:58:36.921Z,98002.40
2023-05-15T15:01:13.624Z,98001.20
2023-05-15T15:03:50.527Z,97997.00
2023-05-15T15:06:27.585Z,97997.20
2023-05-15T15:09:05.252Z,97999.40
2023-05-15T15:11:43.115Z,98002.80
2023-05-15T15:14:21.535Z,98006.00
2023-05-15T15:16:58.319Z,98004.00
2023-05-15T15:19:35.083Z,98007.00
2023-05-15T15:22:12.296Z,97997.40
2023-05-15T15:24:49.152Z,97991.60
2023-05-15T15:27:26.128Z,97991.00
2023-05-15T15:30:04.233Z,97996.20
2023-05-15T15:32:42.042Z,98005.80
2023-05-15T15:35:18.536Z,98009.40
2023-05-15T15:37:55.634Z,98014.60
2023-05-15T15:40:32.371Z,98015.20
2023-05-15T15:43:09.815Z,98020.80
2023-05-15T15:45:46.609Z,98015.20
2023-05-15T15:48:23.883Z,98014.40
2023-05-15T15:51:00.753Z,98020.80
2023-05-15T15:53:37.999Z,98034.40
2023-05-15T15:56:14.628Z,98039.00
2023-05-15T15:58:51.402Z,98035.40
2023-05-15T16:01:29.208Z,98031.20
2023-05-15T16:04:06.356Z,98042.80
2023-05-15T16:06:43.418Z,98038.40
2023-05-15T16:09:20.785Z,98042.00
2023-05-15T16:11:57.775Z,98036.60
2023-05-15T16:14:34.625Z,98035.60
2023-05-15T16:17:11.557Z,98043.80
2023-05-15T16:19:49.039Z,98046.20
2023-05-15T16:22:27.182Z,98050.20
2023-05-15T16:25:04.612Z,98049.80
2023-05-15T16:27:41.349Z,98050.60
2023-05-15T16:30:20.541Z,98052.00
2023-05-15T16:32:57.339Z,98048.20
2023-05-15T16:35:36.727Z,98046.20
2023-05-15T16:38:14.746Z,98043.40
2023-05-15T16:40:52.197Z,98045.20
2023-05-15T16:43:29.154Z,98045.40
2023-05-15T16:46:06.366Z,98045.00
2023-05-15T16:48:43.475Z,98047.00
2023-05-15T16:51:20.581Z,98054.00
2023-05-15T16:53:59.421Z,98055.80
2023-05-15T16:56:36.290Z,98064.60
2023-05-15T16:59:13.262Z,98060.40
2023-05-15T17:01:51.090Z,98063.20
2023-05-15T17:04:29.138Z,98066.40
2023-05-15T17:07:09.836Z,98070.20
2023-05-15T17:09:50.202Z,98069.40
2023-05-15T17:12:28.093Z,98070.60
2023-05-15T17:15:05.604Z,98070.60
2023-05-15T17:17:42.749Z,98068.00
2023-05-15T17:20:19.919Z,98074.80
2023-05-15T17:22:56.971Z,98073.40
2023-05-15T17:25:34.135Z,98073.80
2023-05-15T17:28:10.961Z,98076.40
2023-05-15T17:30:48.191Z,98082.60
2023-05-15T17:33:25.354Z,98083.00
2023-05-15T17:36:02.812Z,98081.60
2023-05-15T17:38:41.008Z,98088.20
2023-05-15T17:41:18.113Z,98088.20
2023-05-15T17:43:55.154Z,98097.60
2023-05-15T17:46:32.176Z,98100.40
2023-05-15T17:49:10.034Z,98098.80
2023-05-15T17:51:47.143Z,98101.80
2023-05-15T17:54:24.853Z,98105.40
2023-05-15T17:57:04.082Z,98105.00
2023-05-15T17:59:41.209Z,98109.20
2023-05-15T18:02:17.999Z,98116.60
2023-05-15T18:04:54.875Z,98115.00
2023-05-15T18:07:32.544Z,98121.60
2023-05-15T18:10:12.824Z,98122.00
2023-05-15T18:12:50.073Z,98130.40
2023-05-15T18:15:27.402Z,98132.00
2023-05-15T18:18:05.412Z,98139.00
2023-05-15T18:20:44.806Z,98142.80
2023-05-15T18:23:22.413Z,98149.20
2023-05-15T18:25:59.641Z,98154.20
2023-05-15T18:28:38.602Z,98149.40
2023-05-15T18:31:18.949Z,98155.60
2023-05-15T18:33:56.530Z,98161.00
2023-05-15T18:36:33.472Z,98164.40
2023-05-15T18:39:10.908Z,98161.80
2023-05-15T18:41:48.078Z,98163.80
2023-05-15T18:44:25.667Z,98170.60
2023-05-15T18:47:03.017Z,98170.60
2023-05-15T18:49:40.591Z,98171.00
2023-05-15T18:52:19.034Z,98171.80
2023-05-15T18:54:57.801Z,98174.40
2023-05-15T18:57:35.838Z,98175.40
2023-05-15T19:00:34.041Z,98172.20
2023-05-15T19:03:17.095Z,98171.60
2023-05-15T19:05:54.930Z,98174.40
2023-05-15T19:08:33.003Z,98178.80
2023-05-15T19:11:14.405Z,98176.60
2023-05-15T19:13:51.894Z,98178.60
2023-05-15T19:16:32.239Z,98178.20
2023-05-15T19:19:13.342Z,98193.20
2023-05-15T19:21:52.027Z,98199.80
2023-05-15T19:24:33.277Z,98203.80
2023-05-15T19:27:15.040Z,98213.20
2023-05-15T19:29:53.786Z,98209.40
2023-05-15T19:32:31.884Z,98215.80
2023-05-15T19:35:12.857Z,98217.40
2023-05-15T19:37:50.167Z,98219.80
2023-05-15T19:40:27.869Z,98216.60
2023-05-15T19:43:05.377Z,98214.20
2023-05-15T19:45:48.651Z,98215.80
2023-05-15T19:48:26.462Z,98216.20
2023-05-15T19:51:05.043Z,98211.00
2023-05-15T19:53:43.828Z,98218.40
2023-05-15T19:56:22.926Z,98220.40
2023-05-15T19:59:00.723Z,98220.40
2023-05-15T20:01:39.028Z,98222.60
2023-05-15T20:04:21.607Z,98224.40
2023-05-15T20:06:58.742Z,98231.00
2023-05-15T20:09:37.985Z,98240.40
2023-05-15T20:12:17.138Z,98236.80
2023-05-15T20:14:56.601Z,98241.80
2023-05-15T20:17:34.615Z,98242.20
2023-05-15T20:20:14.233Z,98241.80
2023-05-15T20:22:51.408Z,98242.60
2023-05-15T20:25:29.119Z,98239.60
2023-05-15T20:28:06.083Z,98236.00
2023-05-15T20:30:42.913Z,98236.20
2023-05-15T20:33:19.865Z,98235.20
2023-05-15T20:35:58.668Z,98238.80
2023-05-15T20:38:36.904Z,98240.40
2023-05-15T20:41:14.281Z,98242.60
2023-05-15T20:43:51.456Z,98241.80
2023-05-15T20:46:32.225Z,98245.60
2023-05-15T20:49:09.177Z,98251.60
2023-05-15T20:51:48.898Z,98251.40
2023-05-15T20:54:25.796Z,98248.60
2023-05-15T20:57:02.973Z,98248.60
2023-05-15T20:59:39.947Z,98252.60
2023-05-15T21:02:16.554Z,98253.60
2023-05-15T21:04:53.169Z,98265.80
2023-05-15T21:07:32.439Z,98266.40
2023-05-15T21:10:11.221Z,98262.80
2023-05-15T21:12:48.142Z,98264.20
2023-05-15T21:15:25.055Z,98266.20
2023-05-15T21:18:01.714Z,98271.00
2023-05-15T21:20:39.181Z,98278.00
2023-05-15T21:23:16.526Z,98279.60
2023-05-15T21:25:53.188Z,98274.60
2023-05-15T21:28:29.751Z,98276.20
2023-05-15T21:31:27.931Z,98277.40
2023-05-15T21:34:10.259Z,98276.20
2023-05-15T21:36:46.841Z,98286.20
2023-05-15T21:39:23.662Z,98284.60
2023-05-15T21:42:00.047Z,98285.00
2023-05-15T21:44:36.933Z,98285.00
2023-05-15T21:47:13.701Z,98279.40
2023-05-15T21:49:50.109Z,98287.20
2023-05-15T21:52:26.627Z,98286.00
2023-05-15T21:55:03.194Z,98290.00
2023-05-15T21:57:39.673Z,98294.00
2023-05-15T22:00:18.890Z,98293.40
2023-05-15T22:02:55.352Z,98294.60
2023-05-15T22:05:31.761Z,98293.20
2023-05-15T22:08:08.265Z,98291.40
2023-05-15T22:10:44.669Z,98299.00
2023-05-15T22:13:20.927Z,98293.00
2023-05-15T22:15:57.306Z,98290.40
2023-05-15T22:18:35.163Z,98289.00
2023-05-15T22:21:11.882Z,98287.40
2023-05-15T22:23:49.160Z,98283.80
2023-05-15T22:26:25.652Z,98284.00
2023-05-15T22:29:01.998Z,98285.00
2023-05-15T22:31:38.734Z,98283.60
2023-05-15T22:34:15.030Z,98294.40
2023-05-15T22:36:51.399Z,98296.00
2023-05-15T22:39:27.765Z,98299.60
2023-05-15T22:42:04.233Z,98303.20
2023-05-15T22:44:40.804Z,98299.80
2023-05-15T22:47:18.020Z,98302.80
2023-05-15T22:49:54.614Z,98305.20
2023-05-15T22:52:30.954Z,98303.20
2023-05-15T22:55:10.358Z,98303.60
2023-05-15T22:57:59.098Z,98311.00
2023-05-15T23:00:36.030Z,98310.20
2023-05-15T23:03:12.547Z,98302.80
2023-05-15T23:05:49.960Z,98304.80
2023-05-15T23:08:27.501Z,98304.00
2023-05-15T23:11:22.238Z,98307.40
2023-05-15T23:13:58.689Z,98309.20
2023-05-15T23:16:35.265Z,98310.20
2023-05-15T23:19:11.662Z,98308.80
2023-05-15T23:21:48.099Z,98305.20
2023-05-15T23:24:24.672Z,98303.60
2023-05-15T23:27:01.555Z,98306.00
2023-05-15T23:29:38.908Z,98310.60
2023-05-15T23:32:15.509Z,98307.00
2023-05-15T23:34:52.217Z,98308.00
2023-05-15T23:37:28.796Z,98308.40
2023-05-15T23:40:06.039Z,98314.20
2023-05-15T23:42:42.314Z,98313.20
2023-05-15T23:45:19.561Z,98313.00
2023-05-15T23:47:56.354Z,98315.60
2023-05-15T23:50:32.957Z,98317.60
2023-05-15T23:53:09.818Z,98322.20
2023-05-15T23:55:46.120Z,98322.80
2023-05-15T23:58:22.854Z,98323.40
